Time;durP1;ratioP1;P1;durP2;ratioP2;P2;SDS_P1;SDS_P2;PMS_P1;PMS_P2;Temp;Humidity;BMP_temperature;BMP_pressure;BME280_temperature;BME280_humidity;BME280_pressure;Samples;Min_cycle;Max_cycle;Signal;HPM_P1;HPM_P2
2022/09/03 06:53:50;;;;;;;;;;;23.00;68.60;;;;;;5202894;22;19921;-81
2022/09/03 06:56:18;;;;;;;;;;;23.00;69.40;;;;;;5060164;28;19921;-81
2022/09/03 06:58:45;;;;;;;;;;;23.00;68.70;;;;;;5060271;28;19928;-81
2022/09/03 07:01:13;;;;;;;;;;;23.00;68.80;;;;;;5060269;28;19931;-80
2022/09/03 07:03:40;;;;;;;;;;;23.00;68.90;;;;;;5059090;28;20290;-80
2022/09/03 07:06:08;;;;;;;;;;;23.00;68.90;;;;;;5081993;23;19959;-85
2022/09/03 07:08:35;;;;;;;;;;;23.00;69.00;;;;;;5060688;28;20007;-84
2022/09/03 07:11:08;;;;;;;;;;;23.00;69.10;;;;;;5061187;28;20007;-84
2022/09/03 07:13:34;;;;;;;;;;;23.00;69.40;;;;;;5062285;28;20398;-83
2022/09/03 07:16:02;;;;;;;;;;;23.00;69.30;;;;;;5061623;28;19974;-83
2022/09/03 07:18:29;;;;;;;;;;;23.00;69.60;;;;;;5062195;28;20016;-83
2022/09/03 07:21:00;;;;;;;;;;;23.00;69.50;;;;;;5061435;28;19988;-83
2022/09/03 07:23:27;;;;;;;;;;;23.00;69.60;;;;;;5062430;28;19921;-83
2022/09/03 07:25:54;;;;;;;;;;;23.00;69.70;;;;;;5062545;28;20316;-83
2022/09/03 07:28:23;;;;;;;;;;;23.00;69.80;;;;;;5062372;28;19921;-82
2022/09/03 07:30:49;;;;;;;;;;;23.00;70.00;;;;;;5061492;28;19921;-82
2022/09/03 07:33:16;;;;;;;;;;;23.00;70.10;;;;;;5061225;28;19974;-82
2022/09/03 07:35:43;;;;;;;;;;;23.00;70.20;;;;;;5062266;28;19927;-82
2022/09/03 07:38:10;;;;;;;;;;;23.00;70.40;;;;;;5061753;28;19967;-82
2022/09/03 07:40:38;;;;;;;;;;;23.10;70.60;;;;;;5062118;28;19942;-82
2022/09/03 07:43:04;;;;;;;;;;;23.10;70.80;;;;;;5061580;28;19920;-83
2022/09/03 07:45:33;;;;;;;;;;;23.10;71.00;;;;;;5059108;28;19920;-83
2022/09/03 07:47:59;;;;;;;;;;;23.10;71.10;;;;;;5058907;28;19928;-83
2022/09/03 07:50:26;;;;;;;;;;;23.10;71.10;;;;;;5061608;28;19921;-83
2022/09/03 07:52:56;;;;;;;;;;;23.10;71.20;;;;;;5060568;28;19920;-83
2022/09/03 07:55:22;;;;;;;;;;;23.10;71.20;;;;;;5059483;28;19920;-83
2022/09/03 07:57:49;;;;;;;;;;;23.10;71.10;;;;;;5058204;28;19920;-82
2022/09/03 08:00:16;;;;;;;;;;;23.10;71.30;;;;;;5055476;28;19979;-79
2022/09/03 08:02:44;;;;;;;;;;;23.10;71.60;;;;;;5055063;28;19960;-79
2022/09/03 08:05:11;;;;;;;;;;;23.10;71.80;;;;;;5056211;28;20363;-78
2022/09/03 08:07:38;;;;;;;;;;;23.10;72.80;;;;;;5056775;28;20498;-79
2022/09/03 08:10:05;;;;;;;;;;;23.10;72.20;;;;;;5057112;28;20438;-79
2022/09/03 08:12:32;;;;;;;;;;;23.10;72.40;;;;;;5057602;28;20007;-79
2022/09/03 08:14:59;;;;;;;;;;;23.10;72.60;;;;;;5057287;28;19932;-79
2022/09/03 08:17:26;;;;;;;;;;;23.10;72.70;;;;;;5057134;28;19991;-79
2022/09/03 08:19:56;;;;;;;;;;;23.10;73.00;;;;;;5055860;28;19963;-78
2022/09/03 08:22:24;;;;;;;;;;;23.10;73.00;;;;;;5058484;28;19925;-79
2022/09/03 08:24:54;;;;;;;;;;;23.10;73.10;;;;;;5059510;28;19920;-79
2022/09/03 08:27:26;;;;;;;;;;;23.10;73.20;;;;;;5061286;28;19956;-79
2022/09/03 08:29:53;;;;;;;;;;;23.10;73.30;;;;;;5059648;28;19967;-79
2022/09/03 08:32:19;;;;;;;;;;;23.10;73.50;;;;;;5060156;28;19970;-79
2022/09/03 08:34:46;;;;;;;;;;;23.10;73.50;;;;;;5059211;28;20019;-79
2022/09/03 08:37:14;;;;;;;;;;;23.10;73.60;;;;;;5058520;28;19921;-78
2022/09/03 08:39:41;;;;;;;;;;;23.10;73.80;;;;;;5060372;28;20024;-79
2022/09/03 08:42:22;;;;;;;;;;;23.10;73.90;;;;;;5060647;28;19967;-79
2022/09/03 08:44:51;;;;;;;;;;;23.10;74.00;;;;;;5057147;28;19927;-81
2022/09/03 08:47:21;;;;;;;;;;;23.10;74.10;;;;;;5056444;28;19927;-81
2022/09/03 08:49:49;;;;;;;;;;;23.10;74.20;;;;;;5056140;28;19921;-81
2022/09/03 08:52:23;;;;;;;;;;;23.10;74.30;;;;;;5056071;28;19920;-82
2022/09/03 08:54:51;;;;;;;;;;;23.10;74.50;;;;;;5055609;28;19921;-81
2022/09/03 08:57:19;;;;;;;;;;;23.10;74.60;;;;;;5055625;28;19927;-79
2022/09/03 08:59:46;;;;;;;;;;;23.10;74.70;;;;;;5060718;28;19968;-79
2022/09/03 09:02:18;;;;;;;;;;;23.10;74.80;;;;;;5059238;28;20375;-82
2022/09/03 09:04:53;;;;;;;;;;;23.10;74.90;;;;;;5058046;28;19925;-78
2022/09/03 10:35:50;;;;;;;;;;;23.20;79.30;;;;;;6183870;22;20886;31
2022/09/03 10:38:24;;;;;;;;;;;23.20;79.20;;;;;;5014275;28;19928;-77
2022/09/03 10:40:56;;;;;;;;;;;23.20;79.20;;;;;;5016159;28;19921;-77
2022/09/03 10:46:27;;;;;;;;;;;23.10;79.30;;;;;;5015543;28;19916;-77
2022/09/03 10:48:59;;;;;;;;;;;23.10;79.50;;;;;;5015908;28;20008;-77
2022/09/03 10:51:27;;;;;;;;;;;23.10;79.70;;;;;;5015907;28;19971;-77
2022/09/03 10:54:07;;;;;;;;;;;23.10;79.80;;;;;;5019830;28;20004;-79
2022/09/03 10:56:42;;;;;;;;;;;23.10;80.00;;;;;;5019349;28;19921;-79
2022/09/03 10:59:23;;;;;;;;;;;23.10;80.10;;;;;;5020601;28;19968;-79
2022/09/03 11:01:56;;;;;;;;;;;23.10;80.30;;;;;;5021235;28;19968;-79
2022/09/03 11:04:28;;;;;;;;;;;23.10;80.40;;;;;;5020979;28;19972;-79
2022/09/03 11:06:57;;;;;;;;;;;23.10;80.60;;;;;;5021735;28;19964;-79
2022/09/03 11:09:30;;;;;;;;;;;23.10;80.80;;;;;;5022095;28;19980;-79
2022/09/03 11:11:58;;;;;;;;;;;23.10;81.00;;;;;;5021407;28;19960;-79
2022/09/03 11:14:30;;;;;;;;;;;23.20;82.00;;;;;;5022047;28;19973;-79
2022/09/03 11:17:00;;;;;;;;;;;23.20;81.40;;;;;;5021545;28;20028;-79
2022/09/03 11:19:32;;;;;;;;;;;23.20;81.60;;;;;;5022135;28;19928;-80
2022/09/03 11:21:59;;;;;;;;;;;23.20;81.90;;;;;;5021361;28;20007;-80
2022/09/03 11:24:31;;;;;;;;;;;23.20;82.20;;;;;;5022194;28;19981;-80
2022/09/03 11:27:05;;;;;;;;;;;23.20;82.50;;;;;;5021683;28;20024;-81
2022/09/03 11:29:35;;;;;;;;;;;23.30;83.00;;;;;;5020952;28;19971;-79
2022/09/03 11:32:06;;;;;;;;;;;23.30;83.10;;;;;;5020708;28;19933;-79
2022/09/03 11:34:45;;;;;;;;;;;23.30;83.10;;;;;;5021229;28;20380;-80
2022/09/03 11:37:19;;;;;;;;;;;23.30;83.00;;;;;;5021804;28;19921;-79
2022/09/03 11:39:55;;;;;;;;;;;23.30;83.00;;;;;;5016652;28;19921;-78
2022/09/03 11:42:27;;;;;;;;;;;23.30;83.40;;;;;;5017280;28;20005;-78
2022/09/03 11:44:59;;;;;;;;;;;23.30;83.80;;;;;;5018523;28;20343;-78
2022/09/03 11:47:37;;;;;;;;;;;23.30;84.10;;;;;;5017813;28;19933;-78
2022/09/03 11:50:06;;;;;;;;;;;23.30;84.30;;;;;;5017727;28;20344;-78
2022/09/03 11:52:39;;;;;;;;;;;23.30;84.50;;;;;;5017549;28;19927;-78
2022/09/03 11:55:08;;;;;;;;;;;23.30;84.70;;;;;;5017206;28;19925;-78
2022/09/03 11:57:40;;;;;;;;;;;23.30;85.00;;;;;;5015356;28;20015;-78
2022/09/03 12:00:09;;;;;;;;;;;23.30;85.20;;;;;;5015996;28;20024;-78
2022/09/03 12:02:38;;;;;;;;;;;23.30;85.30;;;;;;5017767;28;19925;-83
2022/09/03 12:05:14;;;;;;;;;;;23.30;85.60;;;;;;5016207;28;19921;-79
2022/09/03 12:07:47;;;;;;;;;;;23.30;85.80;;;;;;5016513;28;20339;-78
2022/09/03 12:10:20;;;;;;;;;;;23.30;86.10;;;;;;5015958;28;19928;-78
2022/09/03 12:12:53;;;;;;;;;;;23.30;86.30;;;;;;5016093;28;19921;-79
2022/09/03 12:15:26;;;;;;;;;;;23.30;86.50;;;;;;5016296;28;19935;-78
2022/09/03 12:20:34;;;;;;;;;;;23.30;86.90;;;;;;5017190;28;20355;-79
2022/09/03 12:23:02;;;;;;;;;;;23.30;87.00;;;;;;5016892;28;19980;-79
2022/09/03 12:25:30;;;;;;;;;;;23.30;87.20;;;;;;5016638;28;19921;-78
2022/09/03 12:28:00;;;;;;;;;;;23.30;87.50;;;;;;5017678;28;19921;-79
2022/09/03 12:30:29;;;;;;;;;;;23.30;87.60;;;;;;5017686;28;19921;-79
2022/09/03 12:33:03;;;;;;;;;;;23.30;87.80;;;;;;5016760;28;20011;-79
2022/09/03 12:35:30;;;;;;;;;;;23.30;87.80;;;;;;5017190;28;20023;-81
2022/09/03 12:37:57;;;;;;;;;;;23.30;87.90;;;;;;5015980;28;19972;-78
2022/09/03 12:40:25;;;;;;;;;;;23.30;88.00;;;;;;5015310;28;19921;-78
2022/09/03 12:42:53;;;;;;;;;;;23.30;88.20;;;;;;5017245;28;19964;-79
2022/09/03 12:45:20;;;;;;;;;;;23.30;88.40;;;;;;5018514;28;20023;-80
2022/09/03 12:47:47;;;;;;;;;;;23.30;88.50;;;;;;5016558;28;20028;-78
2022/09/03 12:50:15;;;;;;;;;;;23.30;88.70;;;;;;5014107;28;19921;-78
2022/09/03 12:52:45;;;;;;;;;;;23.30;88.80;;;;;;5014405;28;19921;-78
2022/09/03 12:55:18;;;;;;;;;;;23.30;88.70;;;;;;5015663;28;19921;-79
2022/09/03 12:57:48;;;;;;;;;;;23.30;88.80;;;;;;5018307;28;19928;-80
2022/09/03 13:00:18;;;;;;;;;;;23.30;88.90;;;;;;5019129;28;20299;-79
2022/09/03 13:02:47;;;;;;;;;;;23.30;89.10;;;;;;5019289;28;20300;-80
2022/09/03 13:05:16;;;;;;;;;;;23.30;89.20;;;;;;5019329;28;19937;-81
2022/09/03 13:07:45;;;;;;;;;;;23.30;89.30;;;;;;5019017;28;20024;-79
2022/09/03 20:11:55;;;;;;;;;;;23.00;90.00;;;;;;5054341;28;19927;-75
2022/09/03 20:14:22;;;;;;;;;;;23.00;89.90;;;;;;5053838;28;20011;-75
2022/09/03 20:16:58;;;;;;;;;;;23.00;89.90;;;;;;5053708;28;19920;-76
2022/09/03 20:19:28;;;;;;;;;;;23.00;89.80;;;;;;5054123;28;19921;-75
2022/09/03 20:21:58;;;;;;;;;;;23.00;89.70;;;;;;5053672;28;19921;-76
2022/09/03 20:24:31;;;;;;;;;;;23.00;89.60;;;;;;5054038;28;20011;-76
2022/09/03 20:27:02;;;;;;;;;;;23.00;89.60;;;;;;5053981;28;19927;-76
2022/09/03 20:29:48;;;;;;;;;;;23.00;89.50;;;;;;5053701;28;20281;-76
2022/09/03 20:32:26;;;;;;;;;;;23.00;89.40;;;;;;5054820;28;19928;-76
2022/09/03 20:34:55;;;;;;;;;;;23.00;89.40;;;;;;5053987;28;20003;-76
2022/09/03 20:37:26;;;;;;;;;;;23.00;89.30;;;;;;5053550;28;19971;-77
2022/09/03 20:40:00;;;;;;;;;;;23.00;89.20;;;;;;5054005;28;19925;-76
2022/09/03 20:42:39;;;;;;;;;;;23.00;89.10;;;;;;5053904;28;19921;-76
2022/09/03 20:45:10;;;;;;;;;;;23.00;89.10;;;;;;5053683;28;19920;-76
2022/09/03 20:47:59;;;;;;;;;;;23.00;88.90;;;;;;5053836;28;19986;-76
2022/09/03 20:50:34;;;;;;;;;;;23.00;88.90;;;;;;5053917;28;19921;-76
2022/09/03 20:53:04;;;;;;;;;;;23.00;88.80;;;;;;5053542;28;19927;-76
2022/09/03 20:55:34;;;;;;;;;;;23.00;88.70;;;;;;5057132;28;20367;-76
2022/09/03 20:58:07;;;;;;;;;;;23.00;88.50;;;;;;5057813;28;20256;-76
2022/09/03 21:00:48;;;;;;;;;;;23.00;88.40;;;;;;5057509;28;20389;-76
2022/09/03 21:03:18;;;;;;;;;;;23.00;88.40;;;;;;5057814;28;19924;-76
2022/09/03 21:05:51;;;;;;;;;;;23.00;88.40;;;;;;5057648;28;19921;-76
2022/09/03 21:08:29;;;;;;;;;;;23.00;88.40;;;;;;5057895;28;19920;-75
2022/09/03 21:10:58;;;;;;;;;;;22.90;88.30;;;;;;5057599;28;19927;-74
2022/09/03 21:13:32;;;;;;;;;;;23.00;88.40;;;;;;5057451;28;19920;-74
2022/09/03 21:16:03;;;;;;;;;;;22.90;88.30;;;;;;5057469;28;19921;-75
2022/09/03 21:18:36;;;;;;;;;;;22.90;88.30;;;;;;5058019;28;19927;-74
2022/09/03 21:21:08;;;;;;;;;;;23.00;88.40;;;;;;5057396;28;19921;-74
2022/09/03 21:23:38;;;;;;;;;;;22.90;88.10;;;;;;5057026;28;19925;-74
2022/09/03 21:26:07;;;;;;;;;;;22.90;87.90;;;;;;5057239;28;20011;-74
2022/09/03 21:28:37;;;;;;;;;;;22.90;87.80;;;;;;5057231;28;20015;-74
2022/09/03 21:31:07;;;;;;;;;;;22.90;88.40;;;;;;5056880;28;20543;-74
2022/09/03 21:33:37;;;;;;;;;;;22.90;87.60;;;;;;5057198;28;20039;-74
2022/09/03 21:36:07;;;;;;;;;;;22.90;87.50;;;;;;5056783;28;19924;-74
2022/09/03 21:38:35;;;;;;;;;;;22.90;87.40;;;;;;5056653;28;19920;-74
2022/09/03 21:41:06;;;;;;;;;;;22.90;87.30;;;;;;5056696;28;19927;-74
2022/09/03 21:43:34;;;;;;;;;;;22.90;87.30;;;;;;5056662;28;20291;-74
2022/09/03 21:46:05;;;;;;;;;;;22.90;87.20;;;;;;5056573;28;20011;-74
2022/09/03 21:48:35;;;;;;;;;;;22.90;87.00;;;;;;5056836;28;19964;-74
2022/09/03 21:51:04;;;;;;;;;;;22.90;86.90;;;;;;5056768;28;20011;-74
2022/09/03 21:53:34;;;;;;;;;;;22.90;86.80;;;;;;5056733;28;19921;-74
2022/09/03 21:56:15;;;;;;;;;;;22.90;86.80;;;;;;5056336;28;20398;-74
2022/09/03 21:58:49;;;;;;;;;;;22.90;86.60;;;;;;5056608;28;20020;-74
2022/09/03 22:01:19;;;;;;;;;;;22.90;86.50;;;;;;5056658;28;20007;-74
2022/09/03 22:03:46;;;;;;;;;;;22.90;86.50;;;;;;5056560;28;20402;-74
2022/09/03 22:06:17;;;;;;;;;;;22.90;86.40;;;;;;5056387;28;20342;-74
2022/09/03 22:08:48;;;;;;;;;;;22.90;86.30;;;;;;5056758;28;19920;-74
2022/09/03 22:11:17;;;;;;;;;;;22.90;86.20;;;;;;5056493;28;19924;-74
2022/09/03 22:13:49;;;;;;;;;;;22.90;86.10;;;;;;5056391;28;19921;-74
2022/09/03 22:16:22;;;;;;;;;;;22.90;86.00;;;;;;5056324;28;20011;-74
2022/09/03 22:18:49;;;;;;;;;;;22.90;85.90;;;;;;5055884;28;19921;-74
2022/09/03 22:21:22;;;;;;;;;;;22.90;85.80;;;;;;5056256;28;19921;-74
2022/09/03 22:23:54;;;;;;;;;;;22.90;85.70;;;;;;5056220;28;19921;-74
2022/09/03 22:26:25;;;;;;;;;;;22.90;85.70;;;;;;5056131;28;19920;-74
2022/09/03 22:28:59;;;;;;;;;;;22.90;85.60;;;;;;5055796;28;20459;-74
2022/09/03 22:31:28;;;;;;;;;;;22.90;85.50;;;;;;5056105;28;19928;-74
2022/09/03 22:33:57;;;;;;;;;;;22.90;85.40;;;;;;5056034;28;19930;-74
2022/09/03 22:36:28;;;;;;;;;;;22.90;85.30;;;;;;5055579;28;19920;-74
2022/09/03 22:39:02;;;;;;;;;;;22.90;85.20;;;;;;5055487;28;20368;-74
2022/09/03 22:41:38;;;;;;;;;;;22.80;85.00;;;;;;5056128;28;20012;-74
2022/09/03 22:44:07;;;;;;;;;;;22.80;84.90;;;;;;5055851;28;19924;-74
2022/09/03 22:46:37;;;;;;;;;;;22.90;84.90;;;;;;5055673;28;20003;-74
2022/09/03 22:49:10;;;;;;;;;;;22.80;84.70;;;;;;5055726;28;19930;-74
2022/09/03 22:51:44;;;;;;;;;;;22.80;84.60;;;;;;5055407;28;20019;-74
2022/09/03 22:54:18;;;;;;;;;;;22.80;84.50;;;;;;5055671;28;19920;-74
2022/09/03 22:56:45;;;;;;;;;;;22.80;84.40;;;;;;5055554;28;19932;-74
2022/09/03 22:59:14;;;;;;;;;;;22.80;84.30;;;;;;5055457;28;19927;-74
